createdAt,value
2024-03-10T00:00:27.360Z,2.08
2024-03-10T00:03:15.841Z,2.14
2024-03-10T00:05:44.642Z,2.17
2024-03-10T00:08:12.864Z,2.14
2024-03-10T00:10:42.921Z,2.11
2024-03-10T00:13:11.385Z,2.07
2024-03-10T00:15:39.787Z,2.04
2024-03-10T00:18:08.493Z,2.00
2024-03-10T00:20:36.893Z,2.01
2024-03-10T00:23:05.236Z,2.00
2024-03-10T00:25:33.677Z,2.00
2024-03-10T00:28:01.908Z,1.96
2024-03-10T00:30:30.122Z,1.89
2024-03-10T00:32:58.782Z,1.87
2024-03-10T00:35:27.154Z,1.86
2024-03-10T00:37:55.615Z,1.75
2024-03-10T00:40:25.404Z,1.76
2024-03-10T00:42:55.034Z,1.72
2024-03-10T00:45:24.362Z,1.66
2024-03-10T00:47:56.208Z,1.59
2024-03-10T00:50:24.611Z,1.57
2024-03-10T00:52:53.351Z,1.52
2024-03-10T00:55:22.750Z,1.46
2024-03-10T00:57:51.491Z,1.45
2024-03-10T01:00:19.692Z,1.37
2024-03-10T01:02:49.562Z,1.27
2024-03-10T01:05:18.850Z,1.19
2024-03-10T01:07:47.287Z,1.12
2024-03-10T01:10:15.687Z,1.02
2024-03-10T01:12:44.411Z,0.98
2024-03-10T01:15:13.036Z,1.01
2024-03-10T01:17:41.474Z,1.00
2024-03-10T01:20:12.214Z,1.05
2024-03-10T01:22:40.914Z,1.06
2024-03-10T01:25:09.823Z,1.06
2024-03-10T01:27:37.953Z,1.09
2024-03-10T01:30:06.784Z,1.13
2024-03-10T01:32:35.477Z,1.11
2024-03-10T01:35:07.212Z,1.13
2024-03-10T01:37:36.745Z,1.11
2024-03-10T01:40:06.525Z,1.06
2024-03-10T01:42:34.907Z,0.98
2024-03-10T01:45:05.242Z,0.90
2024-03-10T01:47:34.212Z,0.85
2024-03-10T01:50:07.411Z,0.86
2024-03-10T01:52:36.513Z,0.85
2024-03-10T01:55:07.882Z,0.82
2024-03-10T01:57:38.264Z,0.84
2024-03-10T02:00:07.508Z,0.84
2024-03-10T02:02:42.635Z,0.86
2024-03-10T02:05:11.153Z,0.85
2024-03-10T02:07:39.482Z,0.85
2024-03-10T02:10:08.697Z,0.87
2024-03-10T02:12:39.102Z,0.87
2024-03-10T02:15:08.448Z,0.86
2024-03-10T02:17:38.180Z,0.84
2024-03-10T02:20:15.854Z,0.78
2024-03-10T02:22:45.326Z,0.76
2024-03-10T02:25:14.373Z,0.76
2024-03-10T02:27:46.272Z,0.78
2024-03-10T02:30:20.797Z,0.79
2024-03-10T02:33:07.973Z,0.82
2024-03-10T02:35:55.326Z,0.89
2024-03-10T02:38:41.816Z,0.91
2024-03-10T02:41:28.557Z,0.89
2024-03-10T02:44:15.332Z,0.86
2024-03-10T02:47:04.079Z,0.84
2024-03-10T02:49:32.403Z,0.80
2024-03-10T02:52:00.524Z,0.80
2024-03-10T02:54:28.844Z,0.78
2024-03-10T02:56:57.093Z,0.76
2024-03-10T02:59:26.330Z,0.79
2024-03-10T03:01:54.624Z,0.80
2024-03-10T03:04:22.919Z,0.83
2024-03-10T03:06:51.043Z,0.80
2024-03-10T03:09:21.679Z,0.78
2024-03-10T03:11:49.986Z,0.67
2024-03-10T03:14:19.551Z,0.59
2024-03-10T03:16:48.270Z,0.53
2024-03-10T03:19:16.852Z,0.48
2024-03-10T03:21:45.076Z,0.43
2024-03-10T03:24:15.134Z,0.45
2024-03-10T03:26:44.087Z,0.43
2024-03-10T03:29:12.670Z,0.33
2024-03-10T03:31:41.076Z,0.27
2024-03-10T03:34:09.987Z,0.22
2024-03-10T03:36:38.424Z,0.21
2024-03-10T03:39:07.433Z,0.20
2024-03-10T03:41:35.557Z,0.18
2024-03-10T03:44:05.652Z,0.18
2024-03-10T03:46:34.736Z,0.17
2024-03-10T03:49:03.047Z,0.22
2024-03-10T03:51:31.244Z,0.30
2024-03-10T03:53:59.490Z,0.29
2024-03-10T03:56:28.150Z,0.23
2024-03-10T03:58:56.450Z,0.13
2024-03-10T04:01:24.960Z,0.11
2024-03-10T04:03:53.352Z,0.09
2024-03-10T04:06:21.504Z,0.07
2024-03-10T04:08:50.300Z,0.04
2024-03-10T04:11:18.634Z,-0.01
2024-03-10T04:13:47.871Z,-0.05
2024-03-10T04:16:16.175Z,-0.09
2024-03-10T04:18:44.622Z,-0.04
2024-03-10T04:21:13.609Z,-0.05
2024-03-10T04:23:42.130Z,-0.06
2024-03-10T04:26:10.702Z,-0.05
2024-03-10T04:28:40.051Z,-0.05
2024-03-10T04:31:08.512Z,-0.07
2024-03-10T04:33:37.515Z,-0.08
2024-03-10T04:36:05.935Z,-0.09
2024-03-10T04:38:34.454Z,-0.14
2024-03-10T04:41:02.724Z,-0.18
2024-03-10T04:43:31.103Z,-0.22
2024-03-10T04:45:59.322Z,-0.25
2024-03-10T04:48:28.688Z,-0.26
2024-03-10T04:50:57.365Z,-0.23
2024-03-10T04:53:25.740Z,-0.14
2024-03-10T04:55:54.238Z,-0.02
2024-03-10T04:58:23.577Z,0.12
2024-03-10T05:00:51.918Z,0.26
2024-03-10T05:03:21.880Z,0.43
2024-03-10T05:05:50.232Z,0.53
2024-03-10T05:08:18.604Z,0.59
2024-03-10T05:10:48.222Z,0.63
2024-03-10T05:13:16.663Z,0.69
2024-03-10T05:15:45.005Z,0.75
2024-03-10T05:18:13.354Z,0.80
2024-03-10T05:20:41.628Z,0.84
2024-03-10T05:23:09.880Z,0.89
2024-03-10T05:25:40.881Z,0.97
2024-03-10T05:28:10.903Z,1.09
2024-03-10T05:30:39.328Z,1.23
2024-03-10T05:33:07.584Z,1.37
2024-03-10T05:35:36.725Z,1.49
2024-03-10T05:38:05.717Z,1.59
2024-03-10T05:40:33.917Z,1.66
2024-03-10T05:43:02.128Z,1.76
2024-03-10T05:45:30.455Z,1.88
2024-03-10T05:47:58.742Z,2.00
2024-03-10T05:50:27.448Z,2.14
2024-03-10T05:52:55.787Z,2.30
2024-03-10T05:55:24.041Z,2.45
2024-03-10T05:57:52.756Z,2.62
2024-03-10T06:00:20.993Z,2.83
2024-03-10T06:02:49.957Z,3.04
2024-03-10T06:05:18.284Z,3.27
2024-03-10T06:07:46.922Z,3.49
2024-03-10T06:10:15.203Z,3.69
2024-03-10T06:12:44.051Z,3.88
2024-03-10T06:15:13.216Z,4.08
2024-03-10T06:17:52.600Z,4.27
2024-03-10T06:20:39.656Z,4.47
2024-03-10T06:23:26.506Z,4.68
2024-03-10T06:25:54.878Z,4.91
2024-03-10T06:28:23.808Z,5.14
2024-03-10T06:30:52.216Z,5.35
2024-03-10T06:33:21.985Z,5.57
2024-03-10T06:35:50.348Z,5.75
2024-03-10T06:38:20.286Z,5.90
2024-03-10T06:40:48.742Z,6.02
2024-03-10T06:43:17.127Z,6.16
2024-03-10T06:45:45.466Z,6.32
2024-03-10T06:48:15.207Z,6.48
2024-03-10T06:50:47.799Z,6.62
2024-03-10T06:53:16.786Z,6.76
2024-03-10T06:55:45.994Z,6.91
2024-03-10T06:58:14.554Z,7.04
2024-03-10T07:00:43.295Z,7.15
2024-03-10T07:03:12.709Z,7.27
2024-03-10T07:05:41.203Z,7.39
2024-03-10T07:08:10.574Z,7.50
2024-03-10T07:10:39.518Z,7.63
2024-03-10T07:13:09.640Z,7.81
2024-03-10T07:15:38.131Z,7.98
2024-03-10T07:18:07.050Z,8.15
2024-03-10T07:20:35.696Z,8.29
2024-03-10T07:23:04.103Z,8.42
2024-03-10T07:25:36.708Z,8.55
2024-03-10T07:28:06.087Z,8.68
2024-03-10T07:30:35.561Z,8.80
2024-03-10T07:33:04.547Z,8.91
2024-03-10T07:35:32.789Z,9.05
2024-03-10T07:38:02.276Z,9.16
2024-03-10T07:40:30.782Z,9.27
2024-03-10T07:42:59.510Z,9.41
2024-03-10T07:45:27.837Z,9.51
2024-03-10T07:47:57.558Z,9.58
2024-03-10T07:50:25.921Z,9.66
2024-03-10T07:52:54.395Z,9.71
2024-03-10T07:55:23.807Z,9.78
2024-03-10T07:57:52.148Z,9.82
2024-03-10T08:00:24.083Z,9.87
2024-03-10T08:02:55.439Z,9.92
2024-03-10T08:05:23.781Z,9.96
2024-03-10T08:07:53.406Z,10.04
2024-03-10T08:10:22.678Z,10.13
2024-03-10T08:12:50.982Z,10.20
2024-03-10T08:15:19.499Z,10.26
2024-03-10T08:17:47.922Z,10.29
2024-03-10T08:20:17.060Z,10.34
2024-03-10T08:22:47.068Z,10.41
2024-03-10T08:25:15.683Z,10.48
2024-03-10T08:27:45.114Z,10.57
2024-03-10T08:30:17.747Z,10.61
2024-03-10T08:32:46.645Z,10.64
2024-03-10T08:35:17.415Z,10.68
2024-03-10T08:37:47.224Z,10.71
2024-03-10T08:40:19.083Z,10.72
2024-03-10T08:42:47.922Z,10.71
2024-03-10T08:45:16.230Z,10.67
2024-03-10T08:47:47.525Z,10.61
2024-03-10T08:50:16.425Z,10.60
2024-03-10T08:52:45.023Z,10.60
2024-03-10T08:55:17.434Z,10.55
2024-03-10T08:57:45.839Z,10.53
2024-03-10T09:00:15.417Z,10.47
2024-03-10T09:02:43.763Z,10.41
2024-03-10T09:05:14.526Z,10.37
2024-03-10T09:07:44.330Z,10.31
2024-03-10T09:10:12.527Z,10.25
2024-03-10T09:12:41.164Z,10.22
2024-03-10T09:15:14.277Z,10.26
2024-03-10T09:17:46.642Z,10.22
2024-03-10T09:20:15.606Z,10.20
2024-03-10T09:22:45.905Z,10.21
2024-03-10T09:25:23.609Z,10.16
2024-03-10T09:27:54.988Z,10.17
2024-03-10T09:30:25.453Z,10.15
2024-03-10T09:32:56.185Z,10.14
2024-03-10T09:35:37.061Z,10.14
2024-03-10T09:38:08.396Z,10.11
2024-03-10T09:40:36.863Z,10.09
2024-03-10T09:43:07.108Z,10.06
2024-03-10T09:45:48.075Z,10.01
2024-03-10T09:48:17.278Z,10.00
2024-03-10T09:50:50.730Z,10.04
2024-03-10T09:53:19.987Z,10.19
2024-03-10T09:55:54.294Z,10.42
2024-03-10T09:58:40.702Z,10.65
2024-03-10T10:01:14.153Z,10.86
2024-03-10T10:03:45.672Z,11.15
2024-03-10T10:06:15.360Z,11.42
2024-03-10T10:08:44.188Z,11.64
2024-03-10T10:11:15.064Z,11.64
2024-03-10T10:13:43.994Z,11.61
2024-03-10T10:16:12.554Z,11.66
2024-03-10T10:18:51.149Z,11.81
2024-03-10T10:21:28.562Z,12.06
2024-03-10T10:23:59.213Z,12.33
2024-03-10T10:26:27.873Z,12.50
2024-03-10T10:29:11.437Z,12.53
2024-03-10T10:31:39.948Z,12.42
2024-03-10T10:34:16.949Z,12.48
2024-03-10T10:36:46.808Z,12.48
2024-03-10T10:39:19.192Z,12.64
2024-03-10T10:41:47.448Z,12.74
2024-03-10T10:44:16.567Z,12.85
2024-03-10T10:46:45.877Z,13.07
2024-03-10T10:49:14.991Z,13.18
2024-03-10T10:51:48.269Z,13.17
2024-03-10T10:54:16.876Z,13.02
2024-03-10T10:56:45.658Z,13.00
2024-03-10T10:59:14.644Z,13.06
2024-03-10T11:01:47.063Z,13.14
2024-03-10T11:04:22.705Z,13.20
2024-03-10T11:06:55.569Z,13.19
2024-03-10T11:09:32.337Z,13.25
2024-03-10T11:12:24.842Z,13.36
2024-03-10T11:14:55.084Z,13.54
2024-03-10T11:17:24.340Z,13.47
2024-03-10T11:19:55.445Z,13.45
2024-03-10T11:22:29.484Z,13.38
2024-03-10T11:25:18.308Z,13.27
2024-03-10T11:27:48.447Z,13.23
2024-03-10T11:30:41.853Z,13.21
2024-03-10T11:33:12.982Z,13.05
2024-03-10T11:35:42.541Z,13.12
2024-03-10T11:38:13.586Z,13.09
2024-03-10T11:40:43.963Z,12.97
2024-03-10T11:43:15.403Z,12.91
2024-03-10T11:45:44.126Z,12.90
2024-03-10T11:48:12.378Z,12.88
2024-03-10T11:50:42.445Z,12.95
2024-03-10T11:53:10.906Z,12.85
2024-03-10T11:55:39.098Z,12.87
2024-03-10T11:58:07.317Z,12.80
2024-03-10T12:00:36.954Z,12.80
2024-03-10T12:03:06.336Z,12.80
2024-03-10T12:05:35.018Z,12.89
2024-03-10T12:08:06.988Z,12.96
2024-03-10T12:10:35.955Z,12.94
2024-03-10T12:13:04.373Z,12.99
2024-03-10T12:15:34.655Z,13.12
2024-03-10T12:18:03.090Z,13.13
2024-03-10T12:20:31.662Z,13.22
2024-03-10T12:23:01.506Z,13.26
2024-03-10T12:25:33.013Z,13.23
2024-03-10T12:28:02.462Z,13.37
2024-03-10T12:30:32.767Z,13.42
2024-03-10T12:33:05.735Z,13.63
2024-03-10T12:35:33.983Z,13.96
2024-03-10T12:38:03.535Z,14.38
2024-03-10T12:40:35.667Z,14.75
2024-03-10T12:43:04.384Z,14.88
2024-03-10T12:45:32.611Z,15.04
2024-03-10T12:48:01.024Z,15.06
2024-03-10T12:50:29.432Z,15.26
2024-03-10T12:52:58.610Z,15.49
2024-03-10T12:55:26.996Z,15.80
2024-03-10T12:57:58.045Z,15.86
2024-03-10T13:00:30.738Z,15.81
2024-03-10T13:03:00.261Z,15.82
2024-03-10T13:05:31.638Z,15.97
2024-03-10T13:08:02.759Z,16.10
2024-03-10T13:10:34.100Z,16.22
2024-03-10T13:13:03.636Z,16.30
2024-03-10T13:15:32.930Z,16.24
2024-03-10T13:18:01.229Z,16.19
2024-03-10T13:20:29.628Z,16.04
2024-03-10T13:22:58.026Z,16.27
2024-03-10T13:25:28.634Z,16.53
2024-03-10T13:27:56.853Z,16.71
2024-03-10T13:30:26.762Z,16.55
2024-03-10T13:32:55.163Z,16.43
2024-03-10T13:35:23.606Z,16.13
2024-03-10T13:37:51.989Z,15.96
2024-03-10T13:40:21.692Z,15.62
2024-03-10T13:42:51.179Z,15.27
2024-03-10T13:45:27.877Z,14.92
2024-03-10T13:48:06.736Z,14.57
2024-03-10T13:50:36.890Z,14.18
2024-03-10T13:53:11.207Z,13.88
2024-03-10T13:55:40.892Z,13.51
2024-03-10T13:58:13.882Z,13.41
2024-03-10T14:00:42.385Z,13.22
2024-03-10T14:03:11.692Z,13.03
2024-03-10T14:05:40.401Z,12.75
2024-03-10T14:08:08.647Z,12.72
2024-03-10T14:10:37.137Z,12.63
2024-03-10T14:13:05.341Z,12.65
2024-03-10T14:15:41.070Z,12.56
2024-03-10T14:18:10.215Z,12.51
2024-03-10T14:20:38.831Z,12.45
2024-03-10T14:23:07.226Z,12.32
2024-03-10T14:25:36.141Z,12.16
2024-03-10T14:28:05.043Z,12.08
2024-03-10T14:30:33.256Z,12.07
2024-03-10T14:33:04.756Z,11.99
2024-03-10T14:35:33.403Z,11.84
2024-03-10T14:38:02.275Z,11.73
2024-03-10T14:40:30.931Z,11.70
2024-03-10T14:43:00.257Z,11.64
2024-03-10T14:45:31.065Z,11.54
2024-03-10T14:47:59.559Z,11.49
2024-03-10T14:50:31.350Z,11.48
2024-03-10T14:52:59.781Z,11.64
2024-03-10T14:55:28.590Z,11.81
2024-03-10T14:58:02.074Z,11.85
2024-03-10T15:00:39.681Z,11.77
2024-03-10T15:03:11.577Z,11.96
2024-03-10T15:05:45.389Z,12.47
2024-03-10T15:08:18.470Z,12.92
2024-03-10T15:10:58.782Z,13.34
2024-03-10T15:13:27.063Z,13.59
2024-03-10T15:15:56.615Z,13.54
2024-03-10T15:18:26.027Z,13.52
2024-03-10T15:20:56.242Z,13.58
2024-03-10T15:23:25.148Z,13.67
2024-03-10T15:25:55.400Z,13.68
2024-03-10T15:28:23.910Z,13.67
2024-03-10T15:30:53.131Z,13.63
2024-03-10T15:33:21.653Z,13.57
2024-03-10T15:35:51.096Z,13.22
2024-03-10T15:38:20.598Z,12.61
2024-03-10T15:40:51.287Z,11.97
2024-03-10T15:43:19.748Z,11.38
2024-03-10T15:45:48.860Z,10.91
2024-03-10T15:48:17.986Z,10.56
2024-03-10T15:50:46.538Z,10.17
2024-03-10T15:53:14.872Z,9.90
2024-03-10T15:55:44.466Z,9.73
2024-03-10T15:58:13.368Z,9.56
2024-03-10T16:00:42.995Z,9.40
2024-03-10T16:03:31.106Z,9.31
2024-03-10T16:06:00.127Z,9.15
2024-03-10T16:08:31.867Z,9.02
2024-03-10T16:11:01.107Z,8.94
2024-03-10T16:13:35.248Z,8.89
2024-03-10T16:16:04.396Z,8.84
2024-03-10T16:18:35.302Z,8.77
2024-03-10T16:21:05.343Z,8.68
2024-03-10T16:23:34.304Z,8.62
2024-03-10T16:26:02.867Z,8.59
2024-03-10T16:28:31.374Z,8.57
2024-03-10T16:30:59.598Z,8.54
2024-03-10T16:33:27.898Z,8.52
2024-03-10T16:35:57.319Z,8.51
2024-03-10T16:38:25.703Z,8.45
2024-03-10T16:40:55.168Z,8.42
2024-03-10T16:43:23.724Z,8.39
2024-03-10T16:45:52.231Z,8.37
2024-03-10T16:48:20.747Z,8.32
2024-03-10T16:50:50.975Z,8.31
2024-03-10T16:53:21.379Z,8.26
2024-03-10T16:55:51.033Z,8.25
2024-03-10T16:58:20.793Z,8.20
2024-03-10T17:00:50.171Z,8.19
2024-03-10T17:03:18.601Z,8.19
2024-03-10T17:05:46.982Z,8.19
2024-03-10T17:08:17.204Z,8.19
2024-03-10T17:10:48.525Z,8.18
2024-03-10T17:13:19.084Z,8.17
2024-03-10T17:15:48.225Z,8.15
2024-03-10T17:18:16.838Z,8.15
2024-03-10T17:20:45.197Z,8.12
2024-03-10T17:23:14.433Z,8.13
2024-03-10T17:25:42.714Z,8.13
2024-03-10T17:28:11.052Z,8.13
2024-03-10T17:30:39.261Z,8.11
2024-03-10T17:33:07.521Z,8.10
2024-03-10T17:35:36.003Z,8.07
2024-03-10T17:38:05.864Z,8.06
2024-03-10T17:40:34.360Z,8.05
2024-03-10T17:43:02.564Z,8.06
2024-03-10T17:45:30.786Z,8.06
2024-03-10T17:48:00.857Z,8.04
2024-03-10T17:50:31.268Z,8.05
2024-03-10T17:52:59.578Z,8.05
2024-03-10T17:55:27.886Z,8.05
2024-03-10T17:57:56.106Z,8.04
2024-03-10T18:00:24.336Z,8.03
2024-03-10T18:02:52.694Z,8.03
2024-03-10T18:05:22.078Z,8.02
2024-03-10T18:07:53.261Z,8.00
2024-03-10T18:10:22.795Z,8.01
2024-03-10T18:12:52.654Z,8.02
2024-03-10T18:15:22.357Z,8.02
2024-03-10T18:17:52.248Z,8.02
2024-03-10T18:20:21.921Z,8.02
2024-03-10T18:22:51.016Z,8.02
2024-03-10T18:25:20.171Z,8.01
2024-03-10T18:27:48.491Z,8.01
2024-03-10T18:30:17.518Z,8.03
2024-03-10T18:32:45.863Z,8.02
2024-03-10T18:35:17.526Z,8.03
2024-03-10T18:37:46.327Z,8.02
2024-03-10T18:40:15.857Z,8.02
2024-03-10T18:42:45.439Z,8.01
2024-03-10T18:45:14.925Z,8.00
2024-03-10T18:47:43.605Z,7.98
2024-03-10T18:50:13.022Z,7.97
2024-03-10T18:52:43.159Z,7.96
2024-03-10T18:55:12.618Z,7.97
2024-03-10T18:57:42.405Z,7.97
2024-03-10T19:00:13.649Z,7.97
2024-03-10T19:02:42.857Z,7.96
2024-03-10T19:05:13.249Z,7.95
2024-03-10T19:07:42.622Z,7.96
2024-03-10T19:10:11.636Z,7.98
2024-03-10T19:12:45.008Z,7.97
2024-03-10T19:15:13.682Z,7.97
2024-03-10T19:17:42.797Z,7.96
2024-03-10T19:20:18.979Z,7.96
2024-03-10T19:22:57.554Z,7.96
2024-03-10T19:25:27.948Z,7.96
2024-03-10T19:27:56.456Z,7.95
2024-03-10T19:30:27.992Z,7.96
2024-03-10T19:32:56.207Z,7.97
2024-03-10T19:35:24.815Z,7.98
2024-03-10T19:37:53.326Z,7.98
2024-03-10T19:40:21.679Z,7.99
2024-03-10T19:42:51.868Z,7.98
2024-03-10T19:45:22.278Z,7.97
2024-03-10T19:47:51.171Z,7.97
2024-03-10T19:50:19.944Z,7.96
2024-03-10T19:52:51.708Z,7.97
2024-03-10T19:55:19.925Z,7.95
2024-03-10T19:57:48.180Z,7.94
2024-03-10T20:00:17.022Z,7.94
2024-03-10T20:02:46.929Z,7.94
2024-03-10T20:05:16.687Z,7.94
2024-03-10T20:07:50.053Z,7.96
2024-03-10T20:10:21.810Z,7.97
2024-03-10T20:12:52.800Z,7.98
2024-03-10T20:15:21.234Z,8.00
2024-03-10T20:17:51.105Z,8.01
2024-03-10T20:20:26.977Z,8.02
2024-03-10T20:22:59.897Z,8.02
2024-03-10T20:25:29.205Z,8.03
2024-03-10T20:27:59.059Z,8.05
2024-03-10T20:30:31.475Z,8.06
2024-03-10T20:33:00.649Z,8.07
2024-03-10T20:35:29.424Z,8.09
2024-03-10T20:37:58.044Z,8.10
2024-03-10T20:40:26.421Z,8.11
2024-03-10T20:42:54.660Z,8.11
2024-03-10T20:45:23.766Z,8.10
2024-03-10T20:47:52.301Z,8.10
2024-03-10T20:50:24.933Z,8.10
2024-03-10T20:52:54.573Z,8.09
2024-03-10T20:55:23.098Z,8.08
2024-03-10T20:57:53.050Z,8.06
2024-03-10T21:00:23.784Z,8.05
2024-03-10T21:02:53.309Z,8.04
2024-03-10T21:05:23.355Z,8.03
2024-03-10T21:07:53.951Z,8.04
2024-03-10T21:10:25.814Z,8.03
2024-03-10T21:12:54.362Z,8.01
2024-03-10T21:15:24.233Z,8.00
2024-03-10T21:17:54.288Z,7.99
2024-03-10T21:20:24.940Z,7.98
2024-03-10T21:22:53.969Z,7.96
2024-03-10T21:25:24.697Z,7.95
2024-03-10T21:27:54.248Z,7.94
2024-03-10T21:30:22.842Z,7.93
2024-03-10T21:32:51.577Z,7.91
2024-03-10T21:35:24.210Z,7.89
2024-03-10T21:37:53.369Z,7.88
2024-03-10T21:40:21.938Z,7.86
2024-03-10T21:42:50.463Z,7.85
2024-03-10T21:45:18.986Z,7.84
2024-03-10T21:47:47.387Z,7.82
2024-03-10T21:50:16.449Z,7.80
2024-03-10T21:52:45.605Z,7.78
2024-03-10T21:55:14.406Z,7.77
2024-03-10T21:57:43.403Z,7.76
2024-03-10T22:00:16.458Z,7.76
2024-03-10T22:02:46.741Z,7.76
2024-03-10T22:05:16.231Z,7.76
2024-03-10T22:07:45.735Z,7.75
2024-03-10T22:10:15.316Z,7.75
2024-03-10T22:12:45.593Z,7.74
2024-03-10T22:15:17.774Z,7.74
2024-03-10T22:17:55.639Z,7.74
2024-03-10T22:20:26.287Z,7.74
2024-03-10T22:22:56.580Z,7.76
2024-03-10T22:25:27.331Z,7.76
2024-03-10T22:27:56.080Z,7.75
2024-03-10T22:30:31.491Z,7.77
2024-03-10T22:33:00.400Z,7.77
2024-03-10T22:35:28.886Z,7.77
2024-03-10T22:37:57.370Z,7.79
2024-03-10T22:40:25.897Z,7.81
2024-03-10T22:42:55.159Z,7.81
2024-03-10T22:45:30.554Z,7.82
2024-03-10T22:48:02.354Z,7.82
2024-03-10T22:50:31.694Z,7.83
2024-03-10T22:53:07.397Z,7.84
2024-03-10T22:55:36.553Z,7.85
2024-03-10T22:58:05.868Z,7.86
2024-03-10T23:00:36.042Z,7.87
2024-03-10T23:03:08.395Z,7.88
2024-03-10T23:05:37.771Z,7.90
2024-03-10T23:08:10.218Z,7.91
2024-03-10T23:10:40.709Z,7.94
2024-03-10T23:13:10.872Z,7.95
2024-03-10T23:15:39.347Z,7.95
2024-03-10T23:18:08.162Z,7.96
2024-03-10T23:20:39.262Z,7.98
2024-03-10T23:23:07.990Z,7.96
2024-03-10T23:25:36.754Z,7.97
2024-03-10T23:28:08.489Z,7.99
2024-03-10T23:30:39.125Z,7.99
2024-03-10T23:33:07.819Z,8.00
2024-03-10T23:35:36.231Z,8.00
2024-03-10T23:38:07.038Z,8.00
2024-03-10T23:40:35.665Z,8.00
2024-03-10T23:43:03.951Z,8.00
2024-03-10T23:45:34.738Z,8.01
2024-03-10T23:48:04.213Z,8.00
2024-03-10T23:50:33.263Z,8.02
2024-03-10T23:53:04.827Z,8.02
2024-03-10T23:55:44.524Z,8.01
2024-03-10T23:58:13.601Z,8.00
